x

Galveston,tx - 22 Nm East Of Galveston, Tx (42035) Wave Buoy

2:50pm - Sat 20th Dec 2014 All times are CST. -6 hours from GMT.

  • Sig Wave height 3.0ft
  • Swell Direction
  • Peak Period 4s
  • Average Period 4s
  • Wind
    13mph, 18mph gusts
  • Sea Temp 64°f
  • Air Temp 55°f
  • Sea Pressure 1019.8mb
  • Galveston,tx -  22 Nm East Of Galveston, Tx
  • Galveston,tx -  22 Nm East Of Galveston, Tx

More Historic Weather Station data

Upgrade to MSW Pro to gain access to the past 30 days of data for over 8000 Wavebouys and Weather Stations around the globe.

Join Pro

Comparision Forecast

View Surf forecast
   
Sat 12/20 2:50pm 3ft 4s 4s 13 18 mph 1019.8mb 64f 55f
1:50pm 3.5ft 6s 4s 18 20 mph 1019.4mb 64f 55f
12:50pm 3ft 6s 4s 16 18 mph 1020.3mb 64f 55f
11:50am 3.5ft 5s 4s 18 22 mph 1020.7mb 64f 55f
10:50am 3.5ft 6s 4s 16 20 mph 1021.7mb 64f 54f
9:50am 3.5ft 6s 4s 18 22 mph 1021.5mb 64f 54f
8:50am 3.5ft 6s 4s 18 22 mph 1021.3mb 64f 54f
7:50am 3.5ft 6s 4s 18 22 mph 1020.6mb 64f 53f
6:50am 3.5ft 6s 4s 18 25 mph 1019.9mb 64f 53f
5:50am 3.5ft 6s 4s 18 22 mph 1019.3mb 64f 53f
4:50am 3.5ft 6s 4s 18 20 mph 1019.1mb 64f 53f
3:50am 4ft 5s 4s 20 25 mph 1018.8mb 64f 53f
2:50am 4ft 5s 4s 20 22 mph 1018.5mb 64f 54f
1:50am 4.5ft 6s 4s 20 25 mph 1018.3mb 64f 53f
12:50am 4.5ft 6s 4s 20 25 mph 1018.1mb 64f 53f
Fri 12/19 11:50pm 4.5ft 6s 4s 22 27 mph 1018.2mb 64f 54f
10:50pm 4.5ft 6s 4s 20 25 mph 1018.2mb 64f 54f
9:50pm 4.5ft 6s 4s 22 27 mph 1017.6mb 64f 55f
8:50pm 5ft 5s 4s 22 27 mph 1016.8mb 65f 56f
7:50pm 5ft 6s 4s 20 25 mph 1016.3mb 65f 58f
6:50pm 5ft 5s 4s 22 29 mph 1015.4mb 65f 60f
5:50pm 5ft 5s 4s 25 31 mph 1014.4mb 65f 60f
4:50pm 5ft 5s 4s 27 31 mph 1014mb 65f 60f
3:50pm 5ft 5s 4s 25 29 mph 1014mb 65f 60f
2:50pm 5ft 5s 4s 27 31 mph 1013.5mb 65f 60f
1:50pm 6ft 5s 5s 22 29 mph 1014mb 65f 60f
12:50pm 4.5ft 5s 4s 25 29 mph 1013.9mb 65f 61f
11:50am 4ft 5s 4s 25 31 mph 1014.7mb 65f 62f
10:50am 4ft 5s 4s 20 25 mph 1015.7mb 65f 64f
9:50am 4ft 5s 4s 22 27 mph 1015.9mb 65f 64f
8:50am 4ft 5s 4s 18 20 mph 1016.4mb 65f 62f
7:50am 4.5ft 5s 4s 20 22 mph 1016.3mb 65f 62f
6:50am 5ft 5s 4s 27 31 mph 1015.1mb 65f 62f
5:50am 4ft 4s 4s 25 31 mph 1015.7mb 65f 61f
4:50am 3.5ft 6s 4s 22 27 mph 1015.5mb 65f 61f
3:50am 3.5ft 5s 4s 11 13 mph 1015.6mb 65f 65f
2:50am 3.5ft 5s 4s 11
mph
1015.1mb 65f 65f
1:50am 4ft 4s 4s 16 20 mph 1015.1mb 65f 64f
12:50am 3.5ft 4s 4s 20 22 mph 1015.1mb 65f 63f
Thu 12/18 11:50pm 3.5ft 4s 4s 20 22 mph 1015.9mb 65f 62f
10:50pm 3.5ft 4s 4s 18 20 mph 1017mb 65f 62f
9:50pm 3.5ft 5s 4s 18 22 mph 1017.8mb 65f 62f
8:50pm 3ft 6s 4s 20 22 mph 1017.4mb 65f 63f
7:50pm 2.5ft 6s 4s 18 20 mph 1017mb 64f 64f
6:50pm 2.5ft 6s 4s 13 16 mph 1017.1mb 64f 64f
5:50pm 2.5ft 6s 5s 13 16 mph 1016.6mb 65f 63f
4:50pm 2.5ft 6s 5s 4 7 mph 1016.5mb 65f 65f
3:50pm 2.5ft 5s 5s 4 7 mph 1016.4mb 65f 65f
2:50pm 2.5ft 6s 5s 4
mph
1016.3mb 65f 65f
1:50pm 2.5ft 5s 4s 7
mph
1016.5mb 65f 65f
12:50pm 3.5ft 6s 5s 9 11 mph 1017.9mb 65f 65f
11:50am 3ft 6s 5s 9 13 mph 1018.5mb 65f 66f
10:50am 3ft 6s 5s 4
mph
1018.8mb 65f 66f
9:50am 3ft 6s 4s 4 7 mph 1018.8mb 65f 66f
8:50am 2.5ft 6s 4s 7
mph
1018.3mb 65f 66f
7:50am 3ft 5s 4s 7
mph
1018.1mb 65f 66f
6:50am 3.5ft 5s 5s 9
mph
1017.5mb 65f 67f
5:50am 3ft 5s 5s 9
mph
1017mb 65f 66f
4:50am 3.5ft 6s 5s 9 11 mph 1016.9mb 65f 66f
3:50am 3.5ft 5s 4s 11
mph
1017.2mb 65f 66f
2:50am 3.5ft 5s 4s 9 11 mph 1017.9mb 65f 66f
1:50am 3.5ft 5s 4s 11 13 mph 1018.2mb 65f 66f
12:50am 3.5ft 5s 4s 11 13 mph 1018.5mb 65f 66f
Wed 12/17 11:50pm 3.5ft 5s 4s 11 13 mph 1019.1mb 65f 66f
10:50pm 4ft 5s 4s 13 18 mph 1018.9mb 65f 66f
9:50pm 4ft 5s 4s 13 16 mph 1019mb 65f 65f
8:50pm 4.5ft 5s 4s 18 20 mph 1018.8mb 65f 65f
7:50pm 4.5ft 5s 4s 20 25 mph 1018.1mb 65f 65f
6:50pm 4ft 5s 4s 22 25 mph 1018.5mb 65f 64f
5:50pm 3.5ft 5s 4s 20 25 mph 1018.5mb 65f 64f
4:50pm 3ft 4s 4s 22 25 mph 1018.3mb 65f 63f
3:50pm 3ft 5s 4s 20 22 mph 1019mb 65f 63f
2:50pm 2.5ft 4s 4s 18 20 mph 1019.1mb 65f 63f
1:50pm 2.5ft 4s 4s 18 20 mph 1020mb 65f 62f
12:50pm 2.5ft 4s 4s 16 20 mph 1021.3mb 65f 62f
11:50am 2.5ft 5s 4s 16 18 mph 1022.7mb 65f 62f
10:50am 2.5ft 4s 4s 16 18 mph 1023.6mb 64f 62f
9:50am 2.5ft 4s 4s 18 22 mph 1023.2mb 64f 61f
8:50am 2.5ft 5s 4s 18 20 mph 1022.5mb 64f 60f
7:50am 2.5ft 5s 4s 16 20 mph 1023.3mb 64f 59f
6:50am 2.5ft 4s 4s 13 18 mph 1023.2mb 64f 59f
5:50am 2.5ft 4s 4s 16 18 mph 1022.6mb 64f 58f
4:50am 2.5ft 4s 4s 16 18 mph 1022.8mb 64f 58f
3:50am 2.5ft 4s 3s 18 20 mph 1022.7mb 65f 58f
2:50am 2.5ft 4s 3s 16 18 mph 1023.1mb 64f 58f
1:50am 2ft 3s 3s 18 20 mph 1023.2mb 65f 58f
12:50am 1.6ft 4s 3s 16 18 mph 1024mb 65f 58f
Tue 12/16 11:50pm 2ft 4s 3s 13 16 mph 1025.1mb 65f 59f
10:50pm 2ft 3s 3s 13 16 mph 1025.4mb 65f 59f